sensor_id;sensor_type;location;lat;lon;timestamp;P1;durP1;ratioP1;P2;durP2;ratioP2
36253;SDS011;22291;52.250;21.228;2022-07-23T00:01:38;19.55;;;17.10;;
36253;SDS011;22291;52.250;21.228;2022-07-23T00:04:04;20.37;;;16.95;;
36253;SDS011;22291;52.250;21.228;2022-07-23T00:06:30;22.87;;;18.67;;
36253;SDS011;22291;52.250;21.228;2022-07-23T00:08:56;27.07;;;17.37;;
36253;SDS011;22291;52.250;21.228;2022-07-23T00:11:22;21.95;;;16.95;;
36253;SDS011;22291;52.250;21.228;2022-07-23T00:13:48;20.15;;;17.35;;
36253;SDS011;22291;52.250;21.228;2022-07-23T00:16:15;23.40;;;18.52;;
36253;SDS011;22291;52.250;21.228;2022-07-23T00:18:41;18.45;;;16.20;;
36253;SDS011;22291;52.250;21.228;2022-07-23T00:21:07;22.27;;;17.25;;
36253;SDS011;22291;52.250;21.228;2022-07-23T00:23:33;22.73;;;17.20;;
36253;SDS011;22291;52.250;21.228;2022-07-23T00:25:59;20.30;;;16.27;;
36253;SDS011;22291;52.250;21.228;2022-07-23T00:28:25;19.90;;;16.97;;
36253;SDS011;22291;52.250;21.228;2022-07-23T00:30:51;19.70;;;17.25;;
36253;SDS011;22291;52.250;21.228;2022-07-23T00:33:18;24.12;;;18.48;;
36253;SDS011;22291;52.250;21.228;2022-07-23T00:35:44;19.00;;;16.97;;
36253;SDS011;22291;52.250;21.228;2022-07-23T00:38:11;20.20;;;17.48;;
36253;SDS011;22291;52.250;21.228;2022-07-23T00:40:37;19.85;;;17.70;;
36253;SDS011;22291;52.250;21.228;2022-07-23T00:43:05;21.52;;;18.02;;
36253;SDS011;22291;52.250;21.228;2022-07-23T00:45:31;20.97;;;17.92;;
36253;SDS011;22291;52.250;21.228;2022-07-23T00:47:58;26.68;;;18.60;;
36253;SDS011;22291;52.250;21.228;2022-07-23T00:50:25;23.70;;;18.15;;
36253;SDS011;22291;52.250;21.228;2022-07-23T00:52:52;21.57;;;19.30;;
36253;SDS011;22291;52.250;21.228;2022-07-23T00:55:19;22.52;;;18.62;;
36253;SDS011;22291;52.250;21.228;2022-07-23T00:57:45;20.23;;;18.02;;
36253;SDS011;22291;52.250;21.228;2022-07-23T01:00:14;22.80;;;19.12;;
36253;SDS011;22291;52.250;21.228;2022-07-23T01:02:42;26.10;;;19.82;;
36253;SDS011;22291;52.250;21.228;2022-07-23T01:05:09;23.02;;;19.87;;
36253;SDS011;22291;52.250;21.228;2022-07-23T01:07:35;22.62;;;19.92;;
36253;SDS011;22291;52.250;21.228;2022-07-23T01:10:03;25.17;;;20.08;;
36253;SDS011;22291;52.250;21.228;2022-07-23T01:12:32;26.95;;;21.10;;
36253;SDS011;22291;52.250;21.228;2022-07-23T01:14:59;28.87;;;21.50;;
36253;SDS011;22291;52.250;21.228;2022-07-23T01:17:26;26.62;;;20.48;;
36253;SDS011;22291;52.250;21.228;2022-07-23T01:19:52;30.37;;;21.55;;
36253;SDS011;22291;52.250;21.228;2022-07-23T01:22:19;26.20;;;22.05;;
36253;SDS011;22291;52.250;21.228;2022-07-23T01:24:46;28.00;;;21.85;;
36253;SDS011;22291;52.250;21.228;2022-07-23T01:27:13;27.35;;;21.93;;
36253;SDS011;22291;52.250;21.228;2022-07-23T01:29:42;28.20;;;22.32;;
36253;SDS011;22291;52.250;21.228;2022-07-23T01:32:09;25.62;;;22.00;;
36253;SDS011;22291;52.250;21.228;2022-07-23T01:34:35;27.98;;;22.15;;
36253;SDS011;22291;52.250;21.228;2022-07-23T01:37:01;30.80;;;22.80;;
36253;SDS011;22291;52.250;21.228;2022-07-23T01:39:28;28.45;;;22.42;;
36253;SDS011;22291;52.250;21.228;2022-07-23T01:41:54;33.48;;;21.00;;
36253;SDS011;22291;52.250;21.228;2022-07-23T01:44:20;39.83;;;20.95;;
36253;SDS011;22291;52.250;21.228;2022-07-23T01:46:47;40.33;;;21.73;;
36253;SDS011;22291;52.250;21.228;2022-07-23T01:49:13;26.60;;;20.88;;
36253;SDS011;22291;52.250;21.228;2022-07-23T01:51:40;33.92;;;22.27;;
36253;SDS011;22291;52.250;21.228;2022-07-23T01:54:08;29.63;;;22.45;;
36253;SDS011;22291;52.250;21.228;2022-07-23T01:56:40;24.95;;;20.70;;
36253;SDS011;22291;52.250;21.228;2022-07-23T01:59:06;28.45;;;21.40;;
36253;SDS011;22291;52.250;21.228;2022-07-23T02:01:32;25.45;;;21.12;;
36253;SDS011;22291;52.250;21.228;2022-07-23T02:03:58;28.85;;;21.23;;
36253;SDS011;22291;52.250;21.228;2022-07-23T02:06:25;23.90;;;20.25;;
36253;SDS011;22291;52.250;21.228;2022-07-23T02:08:51;24.47;;;21.23;;
36253;SDS011;22291;52.250;21.228;2022-07-23T02:11:17;23.45;;;20.45;;
36253;SDS011;22291;52.250;21.228;2022-07-23T02:13:43;29.95;;;20.55;;
36253;SDS011;22291;52.250;21.228;2022-07-23T02:16:09;25.17;;;21.37;;
36253;SDS011;22291;52.250;21.228;2022-07-23T02:18:36;25.70;;;20.45;;
36253;SDS011;22291;52.250;21.228;2022-07-23T02:21:02;23.90;;;19.87;;
36253;SDS011;22291;52.250;21.228;2022-07-23T02:23:29;26.77;;;20.90;;
36253;SDS011;22291;52.250;21.228;2022-07-23T02:25:55;24.63;;;21.62;;
36253;SDS011;22291;52.250;21.228;2022-07-23T02:28:21;27.42;;;21.50;;
36253;SDS011;22291;52.250;21.228;2022-07-23T02:30:47;24.02;;;21.27;;
36253;SDS011;22291;52.250;21.228;2022-07-23T02:33:13;29.72;;;22.32;;
36253;SDS011;22291;52.250;21.228;2022-07-23T02:35:40;26.15;;;22.32;;
36253;SDS011;22291;52.250;21.228;2022-07-23T02:38:06;28.70;;;22.25;;
36253;SDS011;22291;52.250;21.228;2022-07-23T02:40:32;30.35;;;23.15;;
36253;SDS011;22291;52.250;21.228;2022-07-23T02:42:58;25.68;;;21.37;;
36253;SDS011;22291;52.250;21.228;2022-07-23T02:45:24;26.70;;;21.00;;
36253;SDS011;22291;52.250;21.228;2022-07-23T02:47:50;28.50;;;22.15;;
36253;SDS011;22291;52.250;21.228;2022-07-23T02:50:17;24.12;;;21.35;;
36253;SDS011;22291;52.250;21.228;2022-07-23T02:52:43;25.62;;;20.88;;
36253;SDS011;22291;52.250;21.228;2022-07-23T02:55:09;25.32;;;21.85;;
36253;SDS011;22291;52.250;21.228;2022-07-23T02:57:36;25.88;;;21.02;;
36253;SDS011;22291;52.250;21.228;2022-07-23T03:00:04;24.30;;;21.17;;
36253;SDS011;22291;52.250;21.228;2022-07-23T03:02:32;24.92;;;22.07;;
36253;SDS011;22291;52.250;21.228;2022-07-23T03:05:00;23.55;;;21.02;;
36253;SDS011;22291;52.250;21.228;2022-07-23T03:07:27;25.17;;;20.48;;
36253;SDS011;22291;52.250;21.228;2022-07-23T03:09:53;26.17;;;20.60;;
36253;SDS011;22291;52.250;21.228;2022-07-23T03:12:19;23.80;;;21.30;;
36253;SDS011;22291;52.250;21.228;2022-07-23T03:14:45;25.72;;;20.40;;
36253;SDS011;22291;52.250;21.228;2022-07-23T03:17:11;24.07;;;21.12;;
36253;SDS011;22291;52.250;21.228;2022-07-23T03:19:37;22.55;;;20.15;;
36253;SDS011;22291;52.250;21.228;2022-07-23T03:22:04;24.55;;;20.15;;
36253;SDS011;22291;52.250;21.228;2022-07-23T03:24:31;24.07;;;21.05;;
36253;SDS011;22291;52.250;21.228;2022-07-23T03:27:16;22.67;;;20.27;;
36253;SDS011;22291;52.250;21.228;2022-07-23T03:29:42;23.22;;;20.30;;
36253;SDS011;22291;52.250;21.228;2022-07-23T03:32:08;26.20;;;20.57;;
36253;SDS011;22291;52.250;21.228;2022-07-23T03:34:35;23.45;;;20.65;;
36253;SDS011;22291;52.250;21.228;2022-07-23T03:37:02;22.75;;;20.25;;
36253;SDS011;22291;52.250;21.228;2022-07-23T03:39:28;37.15;;;23.38;;
36253;SDS011;22291;52.250;21.228;2022-07-23T03:41:54;31.02;;;20.72;;
36253;SDS011;22291;52.250;21.228;2022-07-23T03:44:21;24.92;;;20.80;;
36253;SDS011;22291;52.250;21.228;2022-07-23T03:46:48;23.18;;;19.92;;
36253;SDS011;22291;52.250;21.228;2022-07-23T03:49:14;26.77;;;20.97;;
36253;SDS011;22291;52.250;21.228;2022-07-23T03:51:40;22.87;;;19.92;;
36253;SDS011;22291;52.250;21.228;2022-07-23T03:54:07;22.17;;;19.70;;
36253;SDS011;22291;52.250;21.228;2022-07-23T03:56:33;26.93;;;21.30;;
36253;SDS011;22291;52.250;21.228;2022-07-23T03:59:01;22.55;;;20.15;;
36253;SDS011;22291;52.250;21.228;2022-07-23T04:01:27;24.12;;;20.45;;
36253;SDS011;22291;52.250;21.228;2022-07-23T04:03:53;24.37;;;20.30;;
36253;SDS011;22291;52.250;21.228;2022-07-23T04:06:20;24.63;;;20.40;;
36253;SDS011;22291;52.250;21.228;2022-07-23T04:08:46;23.77;;;20.50;;
36253;SDS011;22291;52.250;21.228;2022-07-23T04:11:12;22.13;;;19.75;;
36253;SDS011;22291;52.250;21.228;2022-07-23T04:13:39;23.05;;;20.57;;
36253;SDS011;22291;52.250;21.228;2022-07-23T04:16:05;24.07;;;20.92;;
36253;SDS011;22291;52.250;21.228;2022-07-23T04:18:32;23.05;;;20.57;;
36253;SDS011;22291;52.250;21.228;2022-07-23T04:20:58;24.87;;;20.35;;
36253;SDS011;22291;52.250;21.228;2022-07-23T04:23:24;26.73;;;21.02;;
36253;SDS011;22291;52.250;21.228;2022-07-23T04:25:50;26.12;;;20.92;;
36253;SDS011;22291;52.250;21.228;2022-07-23T04:28:17;22.60;;;20.30;;
36253;SDS011;22291;52.250;21.228;2022-07-23T04:30:43;35.25;;;22.00;;
36253;SDS011;22291;52.250;21.228;2022-07-23T04:33:10;26.02;;;19.90;;
36253;SDS011;22291;52.250;21.228;2022-07-23T04:35:36;27.05;;;20.62;;
36253;SDS011;22291;52.250;21.228;2022-07-23T04:38:03;28.02;;;19.67;;
36253;SDS011;22291;52.250;21.228;2022-07-23T04:40:30;23.77;;;19.42;;
36253;SDS011;22291;52.250;21.228;2022-07-23T04:42:56;28.62;;;19.65;;
36253;SDS011;22291;52.250;21.228;2022-07-23T04:45:22;23.42;;;19.65;;
36253;SDS011;22291;52.250;21.228;2022-07-23T04:47:50;24.30;;;19.73;;
36253;SDS011;22291;52.250;21.228;2022-07-23T04:50:17;22.67;;;18.40;;
36253;SDS011;22291;52.250;21.228;2022-07-23T04:52:45;23.73;;;19.57;;
36253;SDS011;22291;52.250;21.228;2022-07-23T04:55:11;22.75;;;19.27;;
36253;SDS011;22291;52.250;21.228;2022-07-23T04:57:37;23.15;;;19.10;;
36253;SDS011;22291;52.250;21.228;2022-07-23T05:00:03;26.35;;;20.12;;
36253;SDS011;22291;52.250;21.228;2022-07-23T05:02:31;24.15;;;20.05;;
36253;SDS011;22291;52.250;21.228;2022-07-23T05:04:57;28.32;;;20.55;;
36253;SDS011;22291;52.250;21.228;2022-07-23T05:07:23;32.60;;;20.90;;
36253;SDS011;22291;52.250;21.228;2022-07-23T05:09:50;30.68;;;20.88;;
36253;SDS011;22291;52.250;21.228;2022-07-23T05:12:16;29.23;;;20.52;;
36253;SDS011;22291;52.250;21.228;2022-07-23T05:14:42;30.62;;;20.17;;
36253;SDS011;22291;52.250;21.228;2022-07-23T05:17:08;26.07;;;19.35;;
36253;SDS011;22291;52.250;21.228;2022-07-23T05:19:35;25.57;;;18.73;;
36253;SDS011;22291;52.250;21.228;2022-07-23T05:22:01;24.82;;;18.32;;
36253;SDS011;22291;52.250;21.228;2022-07-23T05:24:27;24.72;;;18.25;;
36253;SDS011;22291;52.250;21.228;2022-07-23T05:26:54;23.83;;;17.55;;
36253;SDS011;22291;52.250;21.228;2022-07-23T05:29:19;21.20;;;16.95;;
36253;SDS011;22291;52.250;21.228;2022-07-23T05:31:46;19.55;;;17.45;;
36253;SDS011;22291;52.250;21.228;2022-07-23T05:34:12;25.15;;;17.00;;
36253;SDS011;22291;52.250;21.228;2022-07-23T05:36:38;23.75;;;15.72;;
36253;SDS011;22291;52.250;21.228;2022-07-23T05:39:04;20.08;;;15.65;;
36253;SDS011;22291;52.250;21.228;2022-07-23T05:41:30;17.17;;;15.32;;
36253;SDS011;22291;52.250;21.228;2022-07-23T05:43:57;22.50;;;14.83;;
36253;SDS011;22291;52.250;21.228;2022-07-23T05:46:23;17.77;;;14.18;;
36253;SDS011;22291;52.250;21.228;2022-07-23T05:48:49;18.55;;;14.50;;
36253;SDS011;22291;52.250;21.228;2022-07-23T05:51:19;17.87;;;14.70;;
36253;SDS011;22291;52.250;21.228;2022-07-23T05:53:47;15.43;;;13.65;;
36253;SDS011;22291;52.250;21.228;2022-07-23T05:56:14;16.80;;;14.73;;
36253;SDS011;22291;52.250;21.228;2022-07-23T05:58:42;22.82;;;17.60;;
36253;SDS011;22291;52.250;21.228;2022-07-23T06:01:08;19.17;;;14.33;;
36253;SDS011;22291;52.250;21.228;2022-07-23T06:03:35;14.45;;;12.98;;
36253;SDS011;22291;52.250;21.228;2022-07-23T06:06:01;14.93;;;13.18;;
36253;SDS011;22291;52.250;21.228;2022-07-23T06:08:27;17.37;;;12.47;;
36253;SDS011;22291;52.250;21.228;2022-07-23T06:10:53;18.57;;;13.30;;
36253;SDS011;22291;52.250;21.228;2022-07-23T06:13:20;16.12;;;12.63;;
36253;SDS011;22291;52.250;21.228;2022-07-23T06:15:46;18.02;;;13.50;;
36253;SDS011;22291;52.250;21.228;2022-07-23T06:18:12;16.12;;;12.85;;
36253;SDS011;22291;52.250;21.228;2022-07-23T06:20:38;14.58;;;12.23;;
36253;SDS011;22291;52.250;21.228;2022-07-23T06:23:06;12.58;;;11.28;;
36253;SDS011;22291;52.250;21.228;2022-07-23T06:25:32;12.53;;;11.33;;
36253;SDS011;22291;52.250;21.228;2022-07-23T06:27:58;16.85;;;11.75;;
36253;SDS011;22291;52.250;21.228;2022-07-23T06:30:25;15.80;;;11.90;;
36253;SDS011;22291;52.250;21.228;2022-07-23T06:32:51;13.28;;;11.53;;
36253;SDS011;22291;52.250;21.228;2022-07-23T06:35:17;13.08;;;11.08;;
36253;SDS011;22291;52.250;21.228;2022-07-23T06:37:44;12.80;;;10.78;;
36253;SDS011;22291;52.250;21.228;2022-07-23T06:40:10;13.15;;;11.88;;
36253;SDS011;22291;52.250;21.228;2022-07-23T06:42:38;12.60;;;11.43;;
36253;SDS011;22291;52.250;21.228;2022-07-23T06:45:05;12.88;;;10.93;;
36253;SDS011;22291;52.250;21.228;2022-07-23T06:47:32;12.98;;;11.28;;
36253;SDS011;22291;52.250;21.228;2022-07-23T06:49:59;17.02;;;10.48;;
36253;SDS011;22291;52.250;21.228;2022-07-23T06:52:25;10.58;;;9.63;;
36253;SDS011;22291;52.250;21.228;2022-07-23T06:54:52;14.65;;;10.93;;
36253;SDS011;22291;52.250;21.228;2022-07-23T06:57:18;12.28;;;10.98;;
36253;SDS011;22291;52.250;21.228;2022-07-23T06:59:44;12.07;;;10.58;;
36253;SDS011;22291;52.250;21.228;2022-07-23T07:02:10;12.10;;;10.90;;
36253;SDS011;22291;52.250;21.228;2022-07-23T07:04:36;13.38;;;10.08;;
36253;SDS011;22291;52.250;21.228;2022-07-23T07:07:03;12.50;;;9.95;;
36253;SDS011;22291;52.250;21.228;2022-07-23T07:09:29;12.93;;;9.78;;
36253;SDS011;22291;52.250;21.228;2022-07-23T07:11:56;11.38;;;10.18;;
36253;SDS011;22291;52.250;21.228;2022-07-23T07:14:22;11.05;;;9.40;;
36253;SDS011;22291;52.250;21.228;2022-07-23T07:16:48;11.53;;;9.13;;
36253;SDS011;22291;52.250;21.228;2022-07-23T07:19:17;15.10;;;11.70;;
36253;SDS011;22291;52.250;21.228;2022-07-23T07:21:47;12.13;;;9.78;;
36253;SDS011;22291;52.250;21.228;2022-07-23T07:24:15;13.58;;;9.58;;
36253;SDS011;22291;52.250;21.228;2022-07-23T07:26:42;13.10;;;9.53;;
36253;SDS011;22291;52.250;21.228;2022-07-23T07:29:08;11.18;;;9.98;;
36253;SDS011;22291;52.250;21.228;2022-07-23T07:31:35;13.88;;;9.45;;
36253;SDS011;22291;52.250;21.228;2022-07-23T07:34:01;12.53;;;9.93;;
36253;SDS011;22291;52.250;21.228;2022-07-23T07:36:27;10.08;;;9.15;;
36253;SDS011;22291;52.250;21.228;2022-07-23T07:38:54;11.88;;;9.85;;
36253;SDS011;22291;52.250;21.228;2022-07-23T07:41:21;16.17;;;10.03;;
36253;SDS011;22291;52.250;21.228;2022-07-23T07:43:49;10.80;;;9.28;;
36253;SDS011;22291;52.250;21.228;2022-07-23T07:46:17;11.50;;;9.63;;
36253;SDS011;22291;52.250;21.228;2022-07-23T07:48:43;9.83;;;8.90;;
36253;SDS011;22291;52.250;21.228;2022-07-23T07:51:09;14.70;;;9.90;;
36253;SDS011;22291;52.250;21.228;2022-07-23T07:53:36;13.03;;;9.93;;
36253;SDS011;22291;52.250;21.228;2022-07-23T07:56:02;15.10;;;11.00;;
36253;SDS011;22291;52.250;21.228;2022-07-23T07:58:29;11.33;;;10.20;;
36253;SDS011;22291;52.250;21.228;2022-07-23T08:00:55;11.93;;;9.35;;
36253;SDS011;22291;52.250;21.228;2022-07-23T08:03:22;9.95;;;8.63;;
36253;SDS011;22291;52.250;21.228;2022-07-23T08:05:48;85.42;;;25.97;;
36253;SDS011;22291;52.250;21.228;2022-07-23T08:08:14;10.35;;;8.78;;
36253;SDS011;22291;52.250;21.228;2022-07-23T08:10:41;10.18;;;8.68;;
36253;SDS011;22291;52.250;21.228;2022-07-23T08:13:11;9.70;;;8.70;;
36253;SDS011;22291;52.250;21.228;2022-07-23T08:15:43;10.63;;;9.25;;
36253;SDS011;22291;52.250;21.228;2022-07-23T08:18:10;11.20;;;9.40;;
36253;SDS011;22291;52.250;21.228;2022-07-23T08:20:36;10.25;;;9.23;;
36253;SDS011;22291;52.250;21.228;2022-07-23T08:23:04;10.80;;;9.00;;
36253;SDS011;22291;52.250;21.228;2022-07-23T08:25:39;9.68;;;8.78;;
36253;SDS011;22291;52.250;21.228;2022-07-23T08:28:11;9.38;;;8.38;;
36253;SDS011;22291;52.250;21.228;2022-07-23T08:30:42;9.85;;;8.95;;
36253;SDS011;22291;52.250;21.228;2022-07-23T08:33:11;11.53;;;8.15;;
36253;SDS011;22291;52.250;21.228;2022-07-23T08:35:43;10.03;;;7.85;;
36253;SDS011;22291;52.250;21.228;2022-07-23T08:38:13;9.08;;;7.78;;
36253;SDS011;22291;52.250;21.228;2022-07-23T08:40:44;9.15;;;8.25;;
36253;SDS011;22291;52.250;21.228;2022-07-23T08:43:18;10.20;;;8.53;;
36253;SDS011;22291;52.250;21.228;2022-07-23T08:45:50;9.00;;;8.20;;
36253;SDS011;22291;52.250;21.228;2022-07-23T08:48:19;10.65;;;7.67;;
36253;SDS011;22291;52.250;21.228;2022-07-23T08:50:48;8.15;;;7.45;;
36253;SDS011;22291;52.250;21.228;2022-07-23T08:53:17;9.35;;;7.35;;
36253;SDS011;22291;52.250;21.228;2022-07-23T08:58:13;12.93;;;8.90;;
36253;SDS011;22291;52.250;21.228;2022-07-23T09:00:40;9.23;;;8.33;;
36253;SDS011;22291;52.250;21.228;2022-07-23T09:03:09;8.50;;;7.60;;
36253;SDS011;22291;52.250;21.228;2022-07-23T09:05:49;9.50;;;8.20;;
36253;SDS011;22291;52.250;21.228;2022-07-23T09:08:18;8.83;;;7.72;;
36253;SDS011;22291;52.250;21.228;2022-07-23T09:10:57;9.00;;;8.25;;
36253;SDS011;22291;52.250;21.228;2022-07-23T09:16:12;8.58;;;6.87;;
36253;SDS011;22291;52.250;21.228;2022-07-23T09:18:48;12.10;;;8.68;;
36253;SDS011;22291;52.250;21.228;2022-07-23T09:21:19;11.53;;;8.43;;
36253;SDS011;22291;52.250;21.228;2022-07-23T09:23:58;10.20;;;8.45;;
36253;SDS011;22291;52.250;21.228;2022-07-23T09:26:37;9.60;;;8.60;;
36253;SDS011;22291;52.250;21.228;2022-07-23T09:31:51;9.70;;;7.65;;
36253;SDS011;22291;52.250;21.228;2022-07-23T09:34:27;9.45;;;6.83;;
36253;SDS011;22291;52.250;21.228;2022-07-23T09:37:11;9.63;;;7.95;;
36253;SDS011;22291;52.250;21.228;2022-07-23T09:39:43;9.03;;;8.13;;
36253;SDS011;22291;52.250;21.228;2022-07-23T09:44:47;10.43;;;7.40;;
36253;SDS011;22291;52.250;21.228;2022-07-23T09:47:17;11.30;;;9.70;;
36253;SDS011;22291;52.250;21.228;2022-07-23T09:52:37;9.00;;;7.37;;
36253;SDS011;22291;52.250;21.228;2022-07-23T09:55:13;7.87;;;7.08;;
36253;SDS011;22291;52.250;21.228;2022-07-23T09:57:40;9.75;;;6.72;;
36253;SDS011;22291;52.250;21.228;2022-07-23T10:00:09;8.30;;;7.17;;
36253;SDS011;22291;52.250;21.228;2022-07-23T10:02:39;9.83;;;7.45;;
36253;SDS011;22291;52.250;21.228;2022-07-23T10:05:06;7.97;;;7.15;;
36253;SDS011;22291;52.250;21.228;2022-07-23T10:07:34;8.28;;;7.47;;
36253;SDS011;22291;52.250;21.228;2022-07-23T10:10:04;8.73;;;7.35;;
36253;SDS011;22291;52.250;21.228;2022-07-23T10:12:32;9.35;;;6.80;;
36253;SDS011;22291;52.250;21.228;2022-07-23T10:15:17;8.35;;;6.97;;
36253;SDS011;22291;52.250;21.228;2022-07-23T10:17:44;10.33;;;7.70;;
36253;SDS011;22291;52.250;21.228;2022-07-23T10:20:10;8.43;;;7.42;;
36253;SDS011;22291;52.250;21.228;2022-07-23T10:22:37;8.63;;;7.72;;
36253;SDS011;22291;52.250;21.228;2022-07-23T10:37:04;9.23;;;7.77;;
36253;SDS011;22291;52.250;21.228;2022-07-23T10:42:46;9.08;;;7.80;;
36253;SDS011;22291;52.250;21.228;2022-07-23T10:45:23;7.95;;;7.15;;
36253;SDS011;22291;52.250;21.228;2022-07-23T10:48:16;8.38;;;6.60;;
36253;SDS011;22291;52.250;21.228;2022-07-23T10:59:24;7.53;;;6.60;;
36253;SDS011;22291;52.250;21.228;2022-07-23T11:01:51;7.65;;;6.90;;
36253;SDS011;22291;52.250;21.228;2022-07-23T11:04:17;7.65;;;6.40;;
36253;SDS011;22291;52.250;21.228;2022-07-23T11:09:28;6.83;;;6.22;;
36253;SDS011;22291;52.250;21.228;2022-07-23T11:15:09;10.28;;;7.22;;
36253;SDS011;22291;52.250;21.228;2022-07-23T11:20:21;7.15;;;6.53;;
36253;SDS011;22291;52.250;21.228;2022-07-23T11:22:54;9.03;;;6.67;;
36253;SDS011;22291;52.250;21.228;2022-07-23T11:28:13;7.80;;;6.90;;
36253;SDS011;22291;52.250;21.228;2022-07-23T11:30:45;6.87;;;6.28;;
36253;SDS011;22291;52.250;21.228;2022-07-23T11:35:46;8.30;;;6.90;;
36253;SDS011;22291;52.250;21.228;2022-07-23T11:38:18;8.78;;;6.50;;
36253;SDS011;22291;52.250;21.228;2022-07-23T11:40:51;9.25;;;7.28;;
36253;SDS011;22291;52.250;21.228;2022-07-23T11:43:22;9.08;;;6.83;;
36253;SDS011;22291;52.250;21.228;2022-07-23T11:45:50;7.70;;;6.67;;
36253;SDS011;22291;52.250;21.228;2022-07-23T11:48:23;8.73;;;6.47;;
36253;SDS011;22291;52.250;21.228;2022-07-23T11:50:53;9.08;;;6.60;;
36253;SDS011;22291;52.250;21.228;2022-07-23T11:55:53;10.63;;;6.25;;
36253;SDS011;22291;52.250;21.228;2022-07-23T11:58:29;7.90;;;6.33;;
36253;SDS011;22291;52.250;21.228;2022-07-23T12:00:55;10.30;;;6.78;;
36253;SDS011;22291;52.250;21.228;2022-07-23T12:03:21;7.00;;;6.40;;
36253;SDS011;22291;52.250;21.228;2022-07-23T12:05:47;9.18;;;7.00;;
36253;SDS011;22291;52.250;21.228;2022-07-23T12:08:14;8.63;;;6.75;;
36253;SDS011;22291;52.250;21.228;2022-07-23T12:10:41;9.30;;;6.80;;
36253;SDS011;22291;52.250;21.228;2022-07-23T12:13:18;12.13;;;6.15;;
36253;SDS011;22291;52.250;21.228;2022-07-23T12:15:44;7.22;;;6.62;;
36253;SDS011;22291;52.250;21.228;2022-07-23T12:18:16;9.90;;;7.10;;
36253;SDS011;22291;52.250;21.228;2022-07-23T12:20:49;7.80;;;7.00;;
36253;SDS011;22291;52.250;21.228;2022-07-23T12:23:21;9.35;;;8.55;;
36253;SDS011;22291;52.250;21.228;2022-07-23T12:25:50;8.03;;;7.33;;
36253;SDS011;22291;52.250;21.228;2022-07-23T12:30:56;8.68;;;6.92;;
36253;SDS011;22291;52.250;21.228;2022-07-23T12:33:25;8.15;;;6.90;;
36253;SDS011;22291;52.250;21.228;2022-07-23T12:35:56;7.67;;;6.97;;
36253;SDS011;22291;52.250;21.228;2022-07-23T12:38:25;8.10;;;6.05;;
36253;SDS011;22291;52.250;21.228;2022-07-23T12:40:55;8.70;;;7.17;;
36253;SDS011;22291;52.250;21.228;2022-07-23T12:43:24;7.50;;;6.90;;
36253;SDS011;22291;52.250;21.228;2022-07-23T12:45:54;9.75;;;7.00;;
36253;SDS011;22291;52.250;21.228;2022-07-23T12:48:30;7.28;;;6.67;;
36253;SDS011;22291;52.250;21.228;2022-07-23T12:51:08;7.70;;;6.92;;
36253;SDS011;22291;52.250;21.228;2022-07-23T12:53:44;6.65;;;6.05;;
36253;SDS011;22291;52.250;21.228;2022-07-23T12:56:21;11.22;;;7.35;;
36253;SDS011;22291;52.250;21.228;2022-07-23T12:58:55;7.90;;;6.83;;
36253;SDS011;22291;52.250;21.228;2022-07-23T13:01:27;9.23;;;7.17;;
36253;SDS011;22291;52.250;21.228;2022-07-23T13:04:03;7.55;;;6.85;;
36253;SDS011;22291;52.250;21.228;2022-07-23T13:06:42;7.67;;;6.97;;
36253;SDS011;22291;52.250;21.228;2022-07-23T13:09:16;10.23;;;7.62;;
36253;SDS011;22291;52.250;21.228;2022-07-23T13:11:52;8.28;;;7.30;;
36253;SDS011;22291;52.250;21.228;2022-07-23T13:14:20;7.47;;;6.87;;
36253;SDS011;22291;52.250;21.228;2022-07-23T13:16:48;7.53;;;6.72;;
36253;SDS011;22291;52.250;21.228;2022-07-23T13:19:16;8.25;;;7.42;;
36253;SDS011;22291;52.250;21.228;2022-07-23T13:21:43;10.38;;;7.00;;
36253;SDS011;22291;52.250;21.228;2022-07-23T13:24:09;9.18;;;7.78;;
36253;SDS011;22291;52.250;21.228;2022-07-23T13:26:37;10.32;;;7.35;;
36253;SDS011;22291;52.250;21.228;2022-07-23T13:29:05;8.08;;;6.72;;
36253;SDS011;22291;52.250;21.228;2022-07-23T13:31:32;10.63;;;6.90;;
36253;SDS011;22291;52.250;21.228;2022-07-23T13:33:58;10.15;;;7.33;;
36253;SDS011;22291;52.250;21.228;2022-07-23T13:36:25;7.87;;;6.58;;
36253;SDS011;22291;52.250;21.228;2022-07-23T13:38:51;9.03;;;7.28;;
36253;SDS011;22291;52.250;21.228;2022-07-23T13:41:18;7.90;;;6.92;;
36253;SDS011;22291;52.250;21.228;2022-07-23T13:43:44;7.75;;;6.85;;
36253;SDS011;22291;52.250;21.228;2022-07-23T13:46:10;11.55;;;6.53;;
36253;SDS011;22291;52.250;21.228;2022-07-23T13:48:37;7.33;;;6.62;;
36253;SDS011;22291;52.250;21.228;2022-07-23T13:51:03;8.68;;;7.70;;
36253;SDS011;22291;52.250;21.228;2022-07-23T13:53:29;8.60;;;7.53;;
36253;SDS011;22291;52.250;21.228;2022-07-23T13:55:55;10.08;;;7.65;;
36253;SDS011;22291;52.250;21.228;2022-07-23T13:58:23;8.33;;;7.53;;
36253;SDS011;22291;52.250;21.228;2022-07-23T14:00:50;8.55;;;7.78;;
36253;SDS011;22291;52.250;21.228;2022-07-23T14:03:19;8.65;;;7.58;;
36253;SDS011;22291;52.250;21.228;2022-07-23T14:05:51;11.65;;;7.85;;
36253;SDS011;22291;52.250;21.228;2022-07-23T14:10:45;6.47;;;5.85;;
36253;SDS011;22291;52.250;21.228;2022-07-23T14:13:11;9.45;;;7.58;;
36253;SDS011;22291;52.250;21.228;2022-07-23T14:15:37;13.25;;;7.80;;
36253;SDS011;22291;52.250;21.228;2022-07-23T14:18:05;11.08;;;7.22;;
36253;SDS011;22291;52.250;21.228;2022-07-23T14:20:33;11.23;;;8.17;;
36253;SDS011;22291;52.250;21.228;2022-07-23T14:23:00;8.40;;;7.60;;
36253;SDS011;22291;52.250;21.228;2022-07-23T14:25:26;8.95;;;8.05;;
36253;SDS011;22291;52.250;21.228;2022-07-23T14:27:53;10.03;;;8.90;;
36253;SDS011;22291;52.250;21.228;2022-07-23T14:30:19;9.88;;;8.70;;
36253;SDS011;22291;52.250;21.228;2022-07-23T14:35:13;11.50;;;7.35;;
36253;SDS011;22291;52.250;21.228;2022-07-23T14:37:39;12.20;;;9.03;;
36253;SDS011;22291;52.250;21.228;2022-07-23T14:40:06;9.95;;;8.95;;
36253;SDS011;22291;52.250;21.228;2022-07-23T14:42:33;9.68;;;8.68;;
36253;SDS011;22291;52.250;21.228;2022-07-23T14:44:59;9.25;;;8.35;;
36253;SDS011;22291;52.250;21.228;2022-07-23T14:47:26;9.70;;;8.80;;
36253;SDS011;22291;52.250;21.228;2022-07-23T14:49:52;14.83;;;9.30;;
36253;SDS011;22291;52.250;21.228;2022-07-23T14:52:18;12.13;;;9.15;;
36253;SDS011;22291;52.250;21.228;2022-07-23T14:54:44;10.35;;;9.23;;
36253;SDS011;22291;52.250;21.228;2022-07-23T14:57:10;10.70;;;9.55;;
36253;SDS011;22291;52.250;21.228;2022-07-23T14:59:36;10.15;;;9.08;;
36253;SDS011;22291;52.250;21.228;2022-07-23T15:02:03;12.65;;;9.25;;
36253;SDS011;22291;52.250;21.228;2022-07-23T15:04:30;29.65;;;9.33;;
36253;SDS011;22291;52.250;21.228;2022-07-23T15:06:56;43.90;;;9.83;;
36253;SDS011;22291;52.250;21.228;2022-07-23T15:09:22;44.80;;;9.95;;
36253;SDS011;22291;52.250;21.228;2022-07-23T15:11:49;36.03;;;7.75;;
36253;SDS011;22291;52.250;21.228;2022-07-23T15:14:15;22.35;;;7.53;;
36253;SDS011;22291;52.250;21.228;2022-07-23T15:16:41;20.77;;;7.12;;
36253;SDS011;22291;52.250;21.228;2022-07-23T15:19:07;15.40;;;7.15;;
36253;SDS011;22291;52.250;21.228;2022-07-23T15:21:34;16.20;;;7.42;;
36253;SDS011;22291;52.250;21.228;2022-07-23T15:24:00;17.02;;;7.62;;